createdAt,value
2022-10-17T00:02:15.587Z,12.46
2022-10-17T00:05:21.428Z,12.24
2022-10-17T00:08:27.413Z,12.10
2022-10-17T00:11:33.291Z,12.04
2022-10-17T00:14:39.537Z,12.10
2022-10-17T00:17:48.083Z,12.05
2022-10-17T00:20:54.708Z,11.94
2022-10-17T00:24:00.536Z,12.01
2022-10-17T00:27:06.224Z,12.02
2022-10-17T00:30:17.960Z,11.98
2022-10-17T00:33:26.206Z,11.93
2022-10-17T00:36:31.983Z,11.88
2022-10-17T00:39:37.524Z,11.89
2022-10-17T00:42:45.131Z,11.72
2022-10-17T00:45:50.870Z,11.55
2022-10-17T00:49:04.662Z,11.37
2022-10-17T00:52:20.040Z,11.36
2022-10-17T00:55:32.244Z,11.49
2022-10-17T00:58:41.430Z,11.61
2022-10-17T01:01:59.840Z,11.73
2022-10-17T01:05:11.357Z,11.79
2022-10-17T01:08:17.512Z,11.66
2022-10-17T01:11:43.000Z,11.56
2022-10-17T01:15:06.302Z,11.53
2022-10-17T01:18:36.174Z,11.60
2022-10-17T01:21:58.820Z,11.59
2022-10-17T01:25:33.188Z,11.48
2022-10-17T01:29:19.684Z,11.45
2022-10-17T01:32:42.666Z,11.33
2022-10-17T01:36:05.579Z,11.27
2022-10-17T01:39:30.015Z,11.12
2022-10-17T01:42:48.934Z,11.05
2022-10-17T01:46:04.430Z,10.98
2022-10-17T01:49:19.234Z,10.96
2022-10-17T01:52:33.317Z,10.93
2022-10-17T01:55:52.959Z,10.91
2022-10-17T01:59:08.151Z,10.80
2022-10-17T02:02:19.972Z,10.77
2022-10-17T02:05:36.736Z,10.89
2022-10-17T02:08:49.408Z,10.89
2022-10-17T02:12:27.874Z,10.99
2022-10-17T02:16:15.073Z,10.96
2022-10-17T02:19:46.905Z,10.70
2022-10-17T02:23:06.057Z,10.56
2022-10-17T02:26:24.164Z,10.36
2022-10-17T02:29:39.786Z,10.39
2022-10-17T02:32:57.715Z,10.40
2022-10-17T02:36:14.576Z,10.51
2022-10-17T02:39:28.150Z,10.47
2022-10-17T02:42:38.334Z,10.28
2022-10-17T02:45:45.288Z,10.19
2022-10-17T02:48:57.466Z,10.13
2022-10-17T02:52:18.895Z,9.92
2022-10-17T02:55:36.866Z,9.66
2022-10-17T02:58:47.658Z,9.46
2022-10-17T03:01:55.184Z,9.46
2022-10-17T03:05:00.827Z,9.40
2022-10-17T03:08:07.364Z,9.59
2022-10-17T03:11:15.672Z,9.77
2022-10-17T03:14:21.275Z,9.86
2022-10-17T03:17:27.018Z,9.94
2022-10-17T03:20:32.906Z,9.76
2022-10-17T03:23:38.453Z,9.44
2022-10-17T03:26:50.310Z,9.26
2022-10-17T03:29:56.762Z,9.14
2022-10-17T03:33:03.634Z,9.15
2022-10-17T03:36:11.578Z,9.10
2022-10-17T03:39:17.191Z,8.97
2022-10-17T03:42:25.474Z,9.01
2022-10-17T03:45:31.109Z,9.17
2022-10-17T03:48:37.180Z,9.30
2022-10-17T03:51:44.136Z,9.45
2022-10-17T03:54:53.512Z,9.56
2022-10-17T03:58:01.680Z,9.58
2022-10-17T04:01:10.405Z,9.64
2022-10-17T04:04:16.306Z,9.65
2022-10-17T04:07:22.070Z,9.63
2022-10-17T04:10:27.830Z,9.48
2022-10-17T04:13:37.824Z,9.05
2022-10-17T04:16:43.590Z,8.76
2022-10-17T04:19:54.193Z,8.71
2022-10-17T04:23:01.533Z,8.74
2022-10-17T04:26:09.487Z,8.54
2022-10-17T04:29:18.099Z,8.47
2022-10-17T04:32:26.417Z,8.57
2022-10-17T04:35:47.097Z,8.58
2022-10-17T04:38:52.954Z,8.68
2022-10-17T04:42:00.587Z,8.66
2022-10-17T04:45:10.617Z,8.63
2022-10-17T04:48:16.889Z,8.59
2022-10-17T04:51:25.894Z,8.63
2022-10-17T04:54:58.391Z,8.68
2022-10-17T04:58:04.078Z,8.71
2022-10-17T05:01:16.772Z,8.73
2022-10-17T05:04:27.394Z,8.62
2022-10-17T05:07:33.070Z,8.77
2022-10-17T05:10:43.770Z,8.86
2022-10-17T05:13:54.989Z,8.92
2022-10-17T05:17:03.764Z,8.92
2022-10-17T05:20:12.024Z,8.89
2022-10-17T05:23:20.515Z,8.84
2022-10-17T05:26:28.146Z,8.87
2022-10-17T05:29:33.804Z,8.87
2022-10-17T05:32:50.046Z,8.70
2022-10-17T05:35:55.744Z,8.70
2022-10-17T05:39:01.739Z,8.81
2022-10-17T05:42:08.636Z,8.89
2022-10-17T05:45:15.094Z,8.80
2022-10-17T05:48:30.340Z,8.71
2022-10-17T05:51:43.746Z,8.59
2022-10-17T05:54:49.998Z,8.71
2022-10-17T05:57:55.714Z,8.87
2022-10-17T06:01:12.101Z,8.87
2022-10-17T06:04:22.511Z,9.14
2022-10-17T06:07:30.682Z,9.18
2022-10-17T06:10:36.386Z,9.28
2022-10-17T06:13:49.099Z,9.36
2022-10-17T06:17:01.395Z,9.39
2022-10-17T06:20:13.353Z,9.22
2022-10-17T06:23:19.112Z,9.22
2022-10-17T06:26:47.805Z,9.48
2022-10-17T06:29:54.672Z,9.88
2022-10-17T06:33:00.411Z,10.33
2022-10-17T06:36:16.586Z,10.95
2022-10-17T06:39:26.971Z,11.83
2022-10-17T06:42:53.610Z,12.64
2022-10-17T06:46:04.757Z,13.25
2022-10-17T06:49:16.050Z,13.13
2022-10-17T06:52:29.484Z,13.35
2022-10-17T06:55:58.451Z,12.90
2022-10-17T06:59:28.202Z,12.76
2022-10-17T07:02:48.551Z,12.55
2022-10-17T07:05:55.196Z,12.81
2022-10-17T07:09:24.546Z,13.11
2022-10-17T07:12:30.448Z,13.32
2022-10-17T07:15:36.053Z,13.71
2022-10-17T07:18:42.301Z,14.28
2022-10-17T07:21:49.219Z,14.91
2022-10-17T07:24:57.746Z,15.21
2022-10-17T07:28:08.148Z,16.09
2022-10-17T07:31:20.405Z,16.50
2022-10-17T07:34:31.548Z,16.27
2022-10-17T07:37:41.758Z,16.49
2022-10-17T07:40:57.206Z,17.25
2022-10-17T07:44:02.845Z,17.68
2022-10-17T07:47:13.288Z,18.00
2022-10-17T07:50:19.305Z,18.47
2022-10-17T07:53:26.998Z,18.58
2022-10-17T07:56:35.236Z,18.72
2022-10-17T07:59:42.200Z,18.46
2022-10-17T08:02:47.816Z,18.26
2022-10-17T08:05:53.403Z,18.32
2022-10-17T08:08:59.753Z,18.63
2022-10-17T08:12:08.665Z,19.07
2022-10-17T08:15:14.879Z,18.56
2022-10-17T08:18:20.830Z,19.68
2022-10-17T08:21:26.484Z,19.62
2022-10-17T08:24:38.275Z,19.93
2022-10-17T08:27:51.282Z,20.01
2022-10-17T08:30:56.898Z,19.16
2022-10-17T08:34:02.480Z,19.95
2022-10-17T08:37:08.360Z,19.77
2022-10-17T08:40:26.654Z,20.51
2022-10-17T08:43:54.471Z,21.09
2022-10-17T08:47:07.182Z,21.42
2022-10-17T08:50:26.996Z,21.27
2022-10-17T08:53:41.452Z,21.66
2022-10-17T08:56:53.219Z,22.26
2022-10-17T09:00:14.196Z,22.25
2022-10-17T09:03:48.256Z,21.54
2022-10-17T09:07:07.301Z,22.62
2022-10-17T09:10:28.750Z,23.36
2022-10-17T09:14:08.255Z,23.36
2022-10-17T09:17:39.668Z,21.57
2022-10-17T09:20:54.426Z,20.61
2022-10-17T09:24:16.104Z,21.13
2022-10-17T09:27:28.819Z,22.16
2022-10-17T09:30:47.547Z,20.75
2022-10-17T09:34:03.022Z,21.20
2022-10-17T09:37:18.363Z,22.61
2022-10-17T09:40:34.620Z,23.70
2022-10-17T09:43:44.767Z,22.80
2022-10-17T09:47:25.639Z,23.69
2022-10-17T09:50:39.114Z,23.86
2022-10-17T09:53:49.793Z,22.34
2022-10-17T09:57:07.838Z,23.03
2022-10-17T10:00:26.011Z,21.97
2022-10-17T10:03:31.647Z,22.74
2022-10-17T10:06:41.592Z,22.69
2022-10-17T10:09:51.687Z,23.29
2022-10-17T10:13:31.031Z,24.56
2022-10-17T10:16:44.445Z,22.49
2022-10-17T10:19:57.105Z,22.35
2022-10-17T10:23:18.533Z,23.12
2022-10-17T10:26:29.560Z,22.56
2022-10-17T10:29:40.066Z,23.37
2022-10-17T10:32:52.273Z,22.20
2022-10-17T10:36:03.636Z,23.18
2022-10-17T10:39:48.863Z,22.55
2022-10-17T10:43:04.798Z,23.33
2022-10-17T10:46:23.347Z,22.29
2022-10-17T10:49:42.762Z,22.63
2022-10-17T10:53:13.527Z,23.07
2022-10-17T10:56:29.765Z,23.30
2022-10-17T10:59:51.891Z,23.45
2022-10-17T11:03:13.730Z,23.29
2022-10-17T11:06:29.228Z,23.45
2022-10-17T11:09:52.420Z,23.41
2022-10-17T11:13:13.775Z,23.73
2022-10-17T11:16:39.482Z,22.75
2022-10-17T11:19:59.084Z,22.52
2022-10-17T11:23:22.219Z,23.68
2022-10-17T11:26:38.245Z,24.24
2022-10-17T11:29:48.789Z,23.40
2022-10-17T11:33:02.728Z,24.17
2022-10-17T11:36:13.594Z,24.47
2022-10-17T11:39:34.238Z,23.32
2022-10-17T11:42:59.927Z,22.64
2022-10-17T11:46:25.230Z,23.19
2022-10-17T11:49:41.110Z,23.37
2022-10-17T11:52:56.803Z,23.41
2022-10-17T11:56:06.251Z,23.46
2022-10-17T11:59:51.719Z,23.83
2022-10-17T12:03:20.423Z,22.70
2022-10-17T12:06:51.175Z,23.71
2022-10-17T12:10:09.682Z,22.21
2022-10-17T12:13:56.437Z,22.64
2022-10-17T12:17:03.061Z,22.55
2022-10-17T12:20:35.502Z,22.55
2022-10-17T12:23:42.224Z,22.26
2022-10-17T12:26:47.931Z,22.78
2022-10-17T12:30:02.515Z,22.59
2022-10-17T12:33:22.775Z,21.95
2022-10-17T12:36:45.923Z,22.06
2022-10-17T12:39:51.918Z,21.81
2022-10-17T12:43:05.678Z,21.49
2022-10-17T12:46:12.562Z,21.69
2022-10-17T12:49:48.055Z,22.15
2022-10-17T12:53:16.988Z,22.56
2022-10-17T12:56:37.295Z,23.06
2022-10-17T12:59:48.150Z,23.66
2022-10-17T13:02:59.179Z,23.32
2022-10-17T13:06:10.428Z,22.83
2022-10-17T13:09:30.583Z,23.10
2022-10-17T13:12:41.601Z,22.58
2022-10-17T13:15:50.819Z,21.72
2022-10-17T13:18:57.451Z,21.49
2022-10-17T13:22:07.354Z,21.28
2022-10-17T13:25:23.625Z,20.83
2022-10-17T13:28:29.552Z,20.77
2022-10-17T13:31:38.317Z,20.84
2022-10-17T13:34:43.914Z,20.29
2022-10-17T13:37:54.050Z,19.97
2022-10-17T13:41:33.642Z,20.11
2022-10-17T13:44:43.510Z,20.05
2022-10-17T13:47:50.447Z,20.17
2022-10-17T13:51:02.974Z,20.26
2022-10-17T13:54:33.585Z,20.30
2022-10-17T13:57:42.510Z,20.19
2022-10-17T14:00:50.959Z,20.13
2022-10-17T14:04:08.500Z,20.06
2022-10-17T14:07:46.185Z,19.95
2022-10-17T14:10:57.838Z,19.99
2022-10-17T14:14:10.476Z,20.13
2022-10-17T14:17:30.927Z,20.10
2022-10-17T14:24:31.661Z,19.89
2022-10-17T14:27:42.639Z,19.86
2022-10-17T14:30:58.118Z,19.98
2022-10-17T14:34:07.736Z,19.97
2022-10-17T14:37:35.127Z,20.10
2022-10-17T14:40:40.787Z,19.84
2022-10-17T14:43:46.561Z,19.61
2022-10-17T14:47:06.007Z,19.55
2022-10-17T14:50:29.559Z,19.71
2022-10-17T14:53:35.146Z,19.69
2022-10-17T14:56:49.657Z,19.72
2022-10-17T14:59:56.007Z,19.80
2022-10-17T15:03:04.696Z,19.68
2022-10-17T15:06:22.333Z,19.63
2022-10-17T15:09:29.170Z,19.55
2022-10-17T15:12:34.857Z,19.45
2022-10-17T15:15:42.514Z,19.35
2022-10-17T15:18:51.119Z,19.30
2022-10-17T15:21:56.736Z,19.12
2022-10-17T15:25:02.317Z,19.05
2022-10-17T15:28:08.215Z,18.98
2022-10-17T15:31:17.087Z,18.83
2022-10-17T15:34:25.375Z,18.59
2022-10-17T15:37:37.472Z,18.42
2022-10-17T15:40:46.092Z,18.36
2022-10-17T15:43:52.072Z,18.24
2022-10-17T15:46:59.987Z,18.13
2022-10-17T15:50:20.214Z,17.97
2022-10-17T15:53:26.510Z,17.80
2022-10-17T15:56:40.292Z,17.71
2022-10-17T15:59:47.033Z,17.70
2022-10-17T16:02:54.035Z,17.53
2022-10-17T16:06:02.873Z,17.39
2022-10-17T16:09:10.628Z,17.28
2022-10-17T16:15:46.841Z,16.91
2022-10-17T16:18:52.714Z,16.82
2022-10-17T16:22:06.530Z,16.75
2022-10-17T16:25:23.483Z,16.50
2022-10-17T16:28:29.222Z,16.45
2022-10-17T16:31:38.746Z,16.41
2022-10-17T16:34:44.432Z,16.38
2022-10-17T16:37:53.067Z,16.42
2022-10-17T16:40:58.605Z,16.37
2022-10-17T16:44:07.775Z,16.30
2022-10-17T16:47:13.617Z,16.19
2022-10-17T16:50:20.088Z,16.10
2022-10-17T16:53:28.255Z,16.00
2022-10-17T16:56:34.588Z,15.88
2022-10-17T16:59:40.231Z,15.78
2022-10-17T17:02:46.130Z,15.72
2022-10-17T17:05:53.962Z,15.64
2022-10-17T17:09:02.237Z,15.57
2022-10-17T17:12:08.150Z,15.40
2022-10-17T17:15:13.765Z,15.30
2022-10-17T17:18:19.362Z,15.09
2022-10-17T17:21:25.010Z,14.99
2022-10-17T17:24:33.286Z,15.01
2022-10-17T17:27:38.874Z,14.90
2022-10-17T17:30:44.724Z,14.73
2022-10-17T17:33:51.198Z,14.57
2022-10-17T17:36:57.025Z,14.46
2022-10-17T17:40:06.263Z,14.45
2022-10-17T17:43:11.974Z,14.49
2022-10-17T17:46:20.887Z,14.46
2022-10-17T17:49:26.519Z,14.40
2022-10-17T17:52:32.640Z,14.26
2022-10-17T17:55:41.071Z,14.27
2022-10-17T17:58:52.527Z,14.19
2022-10-17T18:01:58.151Z,14.26
2022-10-17T18:05:03.784Z,14.29
2022-10-17T18:08:09.599Z,14.31
2022-10-17T18:11:21.146Z,14.24
2022-10-17T18:14:28.198Z,14.24
2022-10-17T18:17:35.922Z,14.21
2022-10-17T18:20:44.672Z,14.13
2022-10-17T18:23:52.948Z,14.26
2022-10-17T18:27:02.535Z,14.29
2022-10-17T18:30:10.463Z,14.38
2022-10-17T18:33:16.613Z,14.43
2022-10-17T18:36:26.283Z,14.50
2022-10-17T18:39:32.022Z,14.49
2022-10-17T18:42:40.252Z,14.43
2022-10-17T18:45:49.205Z,14.32
2022-10-17T18:48:55.400Z,14.20
2022-10-17T18:52:01.599Z,14.04
2022-10-17T18:55:08.416Z,13.91
2022-10-17T18:58:19.510Z,13.82
2022-10-17T19:01:28.610Z,13.89
2022-10-17T19:04:36.088Z,13.91
2022-10-17T19:07:41.869Z,13.99
2022-10-17T19:10:47.465Z,14.08
2022-10-17T19:13:58.871Z,14.10
2022-10-17T19:17:04.829Z,14.09
2022-10-17T19:20:12.987Z,14.05
2022-10-17T19:23:18.530Z,14.07
2022-10-17T19:26:25.306Z,13.92
2022-10-17T19:29:34.185Z,13.86
2022-10-17T19:32:39.792Z,13.77
2022-10-17T19:35:45.403Z,13.58
2022-10-17T19:38:52.509Z,13.43
2022-10-17T19:41:58.868Z,13.38
2022-10-17T19:45:10.788Z,13.32
2022-10-17T19:48:18.917Z,13.34
2022-10-17T19:51:27.252Z,13.32
2022-10-17T19:54:33.156Z,13.42
2022-10-17T19:57:39.255Z,13.53
2022-10-17T20:00:54.615Z,13.63
2022-10-17T20:04:00.929Z,13.70
2022-10-17T20:07:06.781Z,13.81
2022-10-17T20:10:13.034Z,13.84
2022-10-17T20:13:18.705Z,13.96
2022-10-17T20:16:31.356Z,14.02
2022-10-17T20:19:37.283Z,14.04
2022-10-17T20:22:42.968Z,14.08
2022-10-17T20:26:01.057Z,14.20
2022-10-17T20:29:18.551Z,14.23
2022-10-17T20:32:26.751Z,14.22
2022-10-17T20:35:32.428Z,14.31
2022-10-17T20:38:38.659Z,14.24
2022-10-17T20:41:46.244Z,14.17
2022-10-17T20:44:51.793Z,14.19
2022-10-17T20:48:00.314Z,14.24
2022-10-17T20:51:11.162Z,14.20
2022-10-17T20:54:17.114Z,14.26
2022-10-17T20:57:22.732Z,14.26
2022-10-17T21:00:29.184Z,14.28
2022-10-17T21:03:42.329Z,14.30
2022-10-17T21:06:52.138Z,14.33
2022-10-17T21:10:00.332Z,14.25
2022-10-17T21:13:13.212Z,14.20
2022-10-17T21:16:21.983Z,14.17
2022-10-17T21:19:30.205Z,14.17
2022-10-17T21:22:37.021Z,14.07
2022-10-17T21:25:42.630Z,14.02
2022-10-17T21:28:51.889Z,14.02
2022-10-17T21:31:59.969Z,13.96
2022-10-17T21:35:09.907Z,14.00
2022-10-17T21:38:15.703Z,14.04
2022-10-17T21:41:31.518Z,14.01
2022-10-17T21:44:37.604Z,14.03
2022-10-17T21:47:54.866Z,14.04
2022-10-17T21:51:15.118Z,14.04
2022-10-17T21:54:24.136Z,14.05
2022-10-17T21:57:30.415Z,13.95
2022-10-17T22:00:36.198Z,13.85
2022-10-17T22:03:46.695Z,13.81
2022-10-17T22:06:55.193Z,13.84
2022-10-17T22:10:00.990Z,13.72
2022-10-17T22:13:06.814Z,13.71
2022-10-17T22:16:22.474Z,13.62
2022-10-17T22:19:30.102Z,13.66
2022-10-17T22:22:38.259Z,13.61
2022-10-17T22:25:43.947Z,13.56
2022-10-17T22:28:49.551Z,13.36
2022-10-17T22:31:56.235Z,13.36
2022-10-17T22:35:01.866Z,13.22
2022-10-17T22:38:10.033Z,13.28
2022-10-17T22:41:15.734Z,13.23
2022-10-17T22:44:21.368Z,13.21
2022-10-17T22:47:27.210Z,13.25
2022-10-17T22:50:32.859Z,13.24
2022-10-17T22:53:41.331Z,13.25
2022-10-17T22:56:46.949Z,13.16
2022-10-17T22:59:52.560Z,13.18
2022-10-17T23:02:58.719Z,13.13
2022-10-17T23:06:05.911Z,13.14
2022-10-17T23:09:16.075Z,13.03
2022-10-17T23:12:22.264Z,13.01
2022-10-17T23:15:28.035Z,12.95
2022-10-17T23:18:33.631Z,12.92
2022-10-17T23:21:39.207Z,12.85
2022-10-17T23:24:47.843Z,12.83
2022-10-17T23:27:53.710Z,12.76
2022-10-17T23:31:02.138Z,12.69
2022-10-17T23:34:16.654Z,12.67
2022-10-17T23:37:25.766Z,12.68
2022-10-17T23:40:35.096Z,12.67
2022-10-17T23:43:41.397Z,12.65
2022-10-17T23:46:47.383Z,12.66
2022-10-17T23:49:54.633Z,12.64
2022-10-17T23:53:00.641Z,12.60
2022-10-17T23:56:11.588Z,12.57
2022-10-17T23:59:17.597Z,12.55
